Am Falls, Idaho
Current Conditions -  °F | °C
As of 1:53 AM on Monday 20 Oct 2014 (Local Time) from KPIH Reporting Station
Clear Clear  
Wind Chill: 39°   Ceiling: Unl
Heat Index: 39°   Visibility: 10mi
Dew Point: 32°   Wind: 3mph
Humidity: 76%   Direction: 20°NNE
Pressure: 30.04"   Gusts: NA
Location:  42.8287°N, 113.023°W
Report Text: KPIH 200753Z AUTO 02003KT 10SM CLR 04/00 A3004 RMK AO2 SLP153 T00390000
Loading
Personal Weather Stations






























Interactive Weather Map
Tropical Storm Tracking
New forecast layout! Learn more

10-Day Weather Forecast

Advertisements
Track Severe Weather on mobile